Time;durP1;ratioP1;P1;durP2;ratioP2;P2;SDS_P1;SDS_P2;PMS_P1;PMS_P2;Temp;Humidity;BMP_temperature;BMP_pressure;BME280_temperature;BME280_humidity;BME280_pressure;Samples;Min_cycle;Max_cycle;Signal;HPM_P1;HPM_P2
2022/09/27 05:00:10;;;;;;;2.73;1.53;;;11.60;97.20;;;;;;1747972;28;20709;-71
2022/09/27 05:01:03;;;;;;;3.55;1.40;;;11.60;97.20;;;;;;1747884;28;20647;-72
2022/09/27 05:01:54;;;;;;;3.95;1.92;;;11.60;97.20;;;;;;1747779;28;20226;-72
2022/09/27 05:02:47;;;;;;;2.03;1.30;;;11.60;97.20;;;;;;1747835;28;20248;-71
2022/09/27 05:03:38;;;;;;;1.52;1.15;;;11.50;97.20;;;;;;1747883;28;20248;-72
2022/09/27 05:04:29;;;;;;;1.88;1.27;;;11.50;97.20;;;;;;1747590;28;20206;-71
2022/09/27 05:05:21;;;;;;;4.70;1.23;;;11.50;97.20;;;;;;1747782;28;20206;-71
2022/09/27 05:06:12;;;;;;;3.60;1.50;;;11.50;97.20;;;;;;1747745;28;20214;-71
2022/09/27 05:07:04;;;;;;;4.23;1.47;;;11.50;97.20;;;;;;1747792;28;20210;-71
2022/09/27 05:07:55;;;;;;;2.33;1.13;;;11.50;97.20;;;;;;1747874;28;20443;-72
2022/09/27 05:08:46;;;;;;;3.10;1.25;;;11.50;97.20;;;;;;1747856;28;20217;-71
2022/09/27 05:09:37;;;;;;;4.20;1.40;;;11.50;97.20;;;;;;1747867;28;20355;-72
2022/09/27 05:10:29;;;;;;;2.67;1.07;;;11.50;97.20;;;;;;1747863;28;20224;-72
2022/09/27 05:11:21;;;;;;;2.72;1.48;;;11.50;97.20;;;;;;1747808;28;20449;-72
2022/09/27 05:12:13;;;;;;;1.23;1.10;;;11.50;97.20;;;;;;1745991;28;20249;-72
2022/09/27 05:13:03;;;;;;;4.88;1.20;;;11.50;97.20;;;;;;1740914;28;20375;-71
2022/09/27 05:13:55;;;;;;;4.30;1.47;;;11.50;97.20;;;;;;1740770;28;20194;-72
2022/09/27 05:14:46;;;;;;;4.80;1.10;;;11.50;97.20;;;;;;1740895;28;20445;-71
2022/09/27 05:15:39;;;;;;;1.70;0.83;;;11.50;97.20;;;;;;1740838;28;20206;-71
2022/09/27 05:16:32;;;;;;;2.95;1.17;;;11.50;97.20;;;;;;1740931;28;20442;-72
2022/09/27 05:17:24;;;;;;;1.80;0.95;;;11.50;97.20;;;;;;1740848;28;20209;-71
2022/09/27 05:18:16;;;;;;;2.78;1.00;;;11.50;97.20;;;;;;1740858;28;20668;-72
2022/09/27 05:19:08;;;;;;;2.03;1.17;;;11.40;97.20;;;;;;1740961;28;20191;-71
2022/09/27 05:19:59;;;;;;;2.97;1.20;;;11.40;97.20;;;;;;1740935;28;20206;-72
2022/09/27 05:20:52;;;;;;;3.43;1.23;;;11.40;97.20;;;;;;1740953;28;20199;-72
2022/09/27 05:21:43;;;;;;;2.15;1.02;;;11.40;97.20;;;;;;1740832;28;20536;-72
2022/09/27 05:22:34;;;;;;;2.27;1.10;;;11.40;97.20;;;;;;1740802;28;20222;-72
2022/09/27 05:23:26;;;;;;;2.33;0.98;;;11.40;97.20;;;;;;1740866;28;20199;-72
2022/09/27 05:24:18;;;;;;;2.90;1.48;;;11.40;97.20;;;;;;1740700;28;20202;-72
2022/09/27 05:25:08;;;;;;;5.13;1.55;;;11.40;97.20;;;;;;1740924;28;20206;-71
2022/09/27 05:26:03;;;;;;;2.27;1.60;;;11.40;97.20;;;;;;1740722;28;20206;-71
2022/09/27 05:26:54;;;;;;;2.65;1.75;;;11.40;97.20;;;;;;1740816;28;20453;-72
2022/09/27 05:27:46;;;;;;;4.10;2.37;;;11.40;97.20;;;;;;1740890;28;20210;-72
2022/09/27 05:28:37;;;;;;;2.40;2.05;;;11.40;97.20;;;;;;1741754;28;20222;-72
2022/09/27 05:29:29;;;;;;;3.10;1.70;;;11.40;97.20;;;;;;1740902;28;20203;-71
2022/09/27 05:30:20;;;;;;;5.55;2.28;;;11.40;97.20;;;;;;1740759;28;20536;-71
2022/09/27 05:31:15;;;;;;;2.33;1.90;;;11.40;97.20;;;;;;1740922;28;20203;-71
2022/09/27 05:32:05;;;;;;;4.35;1.80;;;11.40;97.20;;;;;;1740771;28;20530;-71
2022/09/27 05:32:57;;;;;;;2.20;1.63;;;11.40;97.20;;;;;;1740841;28;20199;-71
2022/09/27 05:33:48;;;;;;;3.45;1.70;;;11.40;97.20;;;;;;1740605;28;20203;-71
2022/09/27 05:34:40;;;;;;;2.60;1.77;;;11.50;97.20;;;;;;1740864;28;20260;-72
2022/09/27 05:35:32;;;;;;;2.03;1.50;;;11.50;97.20;;;;;;1740823;28;20207;-73
2022/09/27 05:36:24;;;;;;;3.67;1.25;;;11.50;97.20;;;;;;1740861;28;20257;-70
2022/09/27 05:37:15;;;;;;;2.40;1.38;;;11.50;97.20;;;;;;1740748;28;20203;-70
2022/09/27 05:38:07;;;;;;;2.53;1.40;;;11.50;97.20;;;;;;1740774;28;20202;-70
2022/09/27 05:38:58;;;;;;;3.13;1.35;;;11.50;97.20;;;;;;1740807;28;20883;-70
2022/09/27 05:39:50;;;;;;;2.17;1.17;;;11.60;97.20;;;;;;1740869;28;20198;-70
2022/09/27 05:40:43;;;;;;;1.50;0.90;;;11.60;97.20;;;;;;1740758;28;20203;-71
2022/09/27 05:41:34;;;;;;;2.15;1.20;;;11.60;97.20;;;;;;1740746;28;20199;-71
2022/09/27 05:42:25;;;;;;;2.42;1.15;;;11.50;97.20;;;;;;1740624;28;20226;-70
2022/09/27 05:43:18;;;;;;;1.83;1.43;;;11.60;97.20;;;;;;1740880;28;20210;-70
2022/09/27 05:44:09;;;;;;;2.85;0.95;;;11.60;97.20;;;;;;1740621;28;20858;-70
2022/09/27 05:45:01;;;;;;;3.20;2.03;;;11.60;97.20;;;;;;1741873;28;20613;-70
2022/09/27 05:45:52;;;;;;;1.55;1.00;;;11.60;97.20;;;;;;1740707;28;20230;-72
2022/09/27 05:46:45;;;;;;;2.17;1.00;;;11.60;97.20;;;;;;1740770;28;20239;-70
2022/09/27 05:47:36;;;;;;;2.28;0.98;;;11.60;97.20;;;;;;1741872;28;20501;-69
2022/09/27 05:48:29;;;;;;;2.23;1.10;;;11.50;97.20;;;;;;1742161;28;20194;-69
2022/09/27 05:49:20;;;;;;;2.17;0.90;;;11.50;97.20;;;;;;1742152;28;20207;-69
2022/09/27 05:50:11;;;;;;;5.03;1.57;;;11.50;97.20;;;;;;1742241;28;20219;-70
2022/09/27 05:51:03;;;;;;;1.92;0.90;;;11.50;97.20;;;;;;1742224;28;20448;-69
2022/09/27 05:51:54;;;;;;;2.25;1.08;;;11.50;97.20;;;;;;1742083;28;20665;-68
2022/09/27 05:52:45;;;;;;;3.70;1.08;;;11.50;97.20;;;;;;1742144;28;20206;-68
2022/09/27 05:53:37;;;;;;;3.30;1.47;;;11.50;97.20;;;;;;1742214;28;20206;-69
2022/09/27 05:54:28;;;;;;;1.30;0.80;;;11.50;97.20;;;;;;1741843;28;20437;-68
2022/09/27 05:55:20;;;;;;;1.42;0.98;;;11.50;97.20;;;;;;1742165;28;20264;-68
2022/09/27 05:56:11;;;;;;;2.25;1.08;;;11.50;97.20;;;;;;1742013;28;20222;-68
2022/09/27 05:57:04;;;;;;;1.70;1.03;;;11.40;97.20;;;;;;1741961;28;20229;-68
2022/09/27 05:57:57;;;;;;;2.88;1.23;;;11.40;97.20;;;;;;1742115;28;20207;-68
2022/09/27 05:58:49;;;;;;;2.97;1.15;;;11.40;97.20;;;;;;1742161;28;20233;-68
2022/09/27 05:59:40;;;;;;;1.90;1.10;;;11.40;97.20;;;;;;1742097;28;20216;-70
2022/09/27 06:00:33;;;;;;;3.57;1.17;;;11.40;97.20;;;;;;1742206;28;20210;-69
2022/09/27 06:01:26;;;;;;;3.45;1.48;;;11.40;97.20;;;;;;1747223;28;20679;-69
2022/09/27 06:02:19;;;;;;;2.22;1.02;;;11.50;97.20;;;;;;1748909;28;20226;-69
2022/09/27 06:03:12;;;;;;;1.45;1.00;;;11.40;97.20;;;;;;1748959;28;20260;-69
2022/09/27 06:04:04;;;;;;;3.38;0.98;;;11.40;97.20;;;;;;1748735;28;20678;-69
2022/09/27 06:04:55;;;;;;;3.03;1.02;;;11.40;97.20;;;;;;1748898;28;20241;-69
2022/09/27 06:05:48;;;;;;;4.00;1.10;;;11.40;97.20;;;;;;1748881;28;21079;-69
2022/09/27 06:06:38;;;;;;;3.35;1.25;;;11.40;97.20;;;;;;1748943;28;20444;-69
2022/09/27 06:07:31;;;;;;;3.30;1.40;;;11.40;97.20;;;;;;1749021;28;20199;-69
2022/09/27 06:08:22;;;;;;;2.78;1.10;;;11.40;97.20;;;;;;1748897;28;20512;-69
2022/09/27 06:09:15;;;;;;;1.33;0.80;;;11.40;97.20;;;;;;1748961;28;20218;-69
2022/09/27 06:10:07;;;;;;;1.38;0.90;;;11.30;97.20;;;;;;1748989;28;20436;-68
2022/09/27 06:11:03;;;;;;;2.17;1.08;;;11.30;97.20;;;;;;1748797;28;20191;-69
2022/09/27 06:11:54;;;;;;;1.73;1.25;;;11.30;97.20;;;;;;1748729;28;20225;-68
2022/09/27 06:12:45;;;;;;;1.30;1.10;;;11.30;97.20;;;;;;1748940;28;20194;-68
2022/09/27 06:13:37;;;;;;;2.97;1.25;;;11.30;97.20;;;;;;1748862;28;20199;-69
2022/09/27 06:14:29;;;;;;;2.28;1.20;;;11.40;97.20;;;;;;1746891;28;20668;-69
2022/09/27 06:15:20;;;;;;;3.08;1.38;;;11.40;97.20;;;;;;1745301;28;20202;-69
2022/09/27 06:16:12;;;;;;;9.73;1.45;;;11.30;97.20;;;;;;1741867;28;20191;-69
2022/09/27 06:17:03;;;;;;;1.63;1.08;;;11.30;97.20;;;;;;1741826;28;20195;-69
2022/09/27 06:17:57;;;;;;;3.43;1.10;;;11.30;97.20;;;;;;1741995;28;20223;-69
2022/09/27 06:18:47;;;;;;;3.45;1.20;;;11.30;97.20;;;;;;1742136;28;21041;-69
2022/09/27 06:19:39;;;;;;;2.80;1.00;;;11.30;97.20;;;;;;1741909;28;20727;-69
2022/09/27 06:20:30;;;;;;;2.75;1.30;;;11.30;97.20;;;;;;1741948;28;20453;-69
2022/09/27 06:21:22;;;;;;;12.02;1.92;;;11.30;97.20;;;;;;1741960;28;20210;-68
2022/09/27 06:22:13;;;;;;;8.10;1.73;;;11.30;97.20;;;;;;1741897;28;20219;-69
2022/09/27 06:23:07;;;;;;;11.87;3.43;;;11.30;97.20;;;;;;1741838;28;20258;-68
2022/09/27 06:23:58;;;;;;;3.03;1.20;;;11.30;97.20;;;;;;1741666;28;20238;-69
2022/09/27 06:24:50;;;;;;;3.90;1.23;;;11.30;97.20;;;;;;1741972;28;20643;-68
2022/09/27 06:25:41;;;;;;;3.70;1.65;;;11.40;97.20;;;;;;1741829;28;20239;-69
2022/09/27 06:26:33;;;;;;;1.10;0.80;;;11.40;97.20;;;;;;1742010;28;20244;-68
2022/09/27 06:27:25;;;;;;;14.95;2.67;;;11.40;97.20;;;;;;1741213;28;20250;-68
2022/09/27 06:28:17;;;;;;;21.13;2.63;;;11.30;97.20;;;;;;1745229;28;20217;-68
2022/09/27 06:29:08;;;;;;;5.97;1.30;;;11.30;97.20;;;;;;1735002;28;20215;-68
2022/09/27 06:30:00;;;;;;;8.10;1.50;;;11.30;97.20;;;;;;1737764;28;20203;-68
2022/09/27 06:30:51;;;;;;;9.02;1.70;;;11.30;97.20;;;;;;1741951;28;20445;-68
2022/09/27 06:31:43;;;;;;;2.80;1.07;;;11.30;97.20;;;;;;1741992;28;20206;-68
2022/09/27 06:32:34;;;;;;;2.47;1.00;;;11.30;97.20;;;;;;1742419;28;20445;-69
2022/09/27 06:33:27;;;;;;;10.93;1.50;;;11.30;97.20;;;;;;1741925;28;20203;-69
2022/09/27 06:34:18;;;;;;;1.80;1.02;;;11.30;97.20;;;;;;1741557;28;20238;-69
2022/09/27 06:35:10;;;;;;;6.10;1.47;;;11.40;97.20;;;;;;1743049;28;20209;-69
2022/09/27 06:36:02;;;;;;;2.60;1.05;;;11.40;97.20;;;;;;1746319;28;20441;-69
2022/09/27 06:36:53;;;;;;;1.67;0.77;;;11.40;97.20;;;;;;1748311;28;20194;-69
2022/09/27 06:37:45;;;;;;;1.42;0.70;;;11.30;97.20;;;;;;1743920;28;20195;-68
2022/09/27 06:38:37;;;;;;;1.23;0.60;;;11.30;97.20;;;;;;1748771;28;20543;-68
2022/09/27 06:39:28;;;;;;;1.85;0.70;;;11.30;97.20;;;;;;1744458;28;20196;-69
2022/09/27 06:40:21;;;;;;;3.10;0.90;;;11.30;97.20;;;;;;1741854;28;20210;-68
2022/09/27 06:41:12;;;;;;;2.28;0.90;;;11.30;97.20;;;;;;1741903;28;20286;-68
2022/09/27 06:42:04;;;;;;;0.90;0.70;;;11.30;97.20;;;;;;1741761;28;20701;-68
2022/09/27 06:43:01;;;;;;;6.72;1.60;;;11.30;97.20;;;;;;1741783;28;20199;-68
2022/09/27 06:43:53;;;;;;;1.60;0.80;;;11.30;97.20;;;;;;1734754;28;20742;-68
2022/09/27 06:44:46;;;;;;;2.55;1.15;;;11.40;97.20;;;;;;1734959;28;20571;-68
2022/09/27 06:45:38;;;;;;;1.35;0.90;;;11.40;97.20;;;;;;1734923;28;20652;-69
2022/09/27 06:46:29;;;;;;;2.58;0.80;;;11.40;97.20;;;;;;1734931;28;20207;-68
2022/09/27 06:47:22;;;;;;;1.30;0.90;;;11.40;97.20;;;;;;1734890;28;20341;-68
2022/09/27 06:48:15;;;;;;;8.90;1.65;;;11.40;97.20;;;;;;1736518;28;20236;-69
2022/09/27 06:49:08;;;;;;;7.05;1.35;;;11.40;97.20;;;;;;1741758;28;20199;-68
2022/09/27 06:50:04;;;;;;;9.43;2.35;;;11.40;97.20;;;;;;1741687;28;20364;-68
2022/09/27 06:50:56;;;;;;;6.65;1.08;;;11.40;97.20;;;;;;1741870;28;20203;-68
2022/09/27 06:51:47;;;;;;;1.05;0.60;;;11.40;97.20;;;;;;1734858;28;20568;-69
2022/09/27 06:52:46;;;;;;;1.87;0.80;;;11.40;97.20;;;;;;1734916;28;20310;-68
2022/09/27 06:53:37;;;;;;;1.23;1.02;;;11.40;97.20;;;;;;1735050;28;20449;-68
2022/09/27 06:54:28;;;;;;;1.00;0.57;;;11.40;97.20;;;;;;1734687;28;20199;-68
2022/09/27 06:55:19;;;;;;;0.88;0.68;;;11.30;97.20;;;;;;1734996;28;20199;-68
2022/09/27 06:56:11;;;;;;;0.83;0.60;;;11.30;97.20;;;;;;1734828;28;20227;-69
2022/09/27 06:57:02;;;;;;;0.80;0.60;;;11.30;97.20;;;;;;1734731;28;20211;-68
2022/09/27 07:00:26;;;;;;;2.03;0.60;;;11.30;97.20;;;;;;1736436;28;20204;-69
2022/09/27 07:01:17;;;;;;;1.02;0.77;;;11.40;97.20;;;;;;1734931;28;20219;-69
2022/09/27 07:02:09;;;;;;;2.80;0.90;;;11.40;97.20;;;;;;1740080;28;20294;-69
2022/09/27 07:03:00;;;;;;;1.30;0.88;;;11.40;97.20;;;;;;1741679;28;20816;-69
2022/09/27 07:03:51;;;;;;;1.10;0.87;;;11.40;97.20;;;;;;1741130;28;20314;-69
2022/09/27 07:04:44;;;;;;;1.20;0.60;;;11.40;97.20;;;;;;1741755;28;20502;-69
2022/09/27 07:05:35;;;;;;;2.08;0.70;;;11.40;97.20;;;;;;1741758;28;20690;-69
2022/09/27 07:06:26;;;;;;;1.05;0.70;;;11.40;97.20;;;;;;1741772;28;20203;-69
2022/09/27 07:07:18;;;;;;;2.70;0.67;;;11.40;97.20;;;;;;1741657;28;20210;-69
2022/09/27 07:08:10;;;;;;;1.05;0.60;;;11.50;97.20;;;;;;1741767;28;20808;-69
2022/09/27 07:09:02;;;;;;;1.90;0.85;;;11.50;97.20;;;;;;1741750;28;20195;-69
2022/09/27 07:09:53;;;;;;;1.38;0.73;;;11.50;97.20;;;;;;1741758;28;20204;-69
2022/09/27 07:10:45;;;;;;;0.80;0.60;;;11.50;97.20;;;;;;1741799;28;20722;-70
2022/09/27 07:11:36;;;;;;;1.10;0.75;;;11.50;97.20;;;;;;1741424;28;20214;-69
2022/09/27 07:12:27;;;;;;;1.43;1.00;;;11.50;97.20;;;;;;1740699;28;20696;-70
2022/09/27 07:13:18;;;;;;;0.90;0.70;;;11.50;97.20;;;;;;1741388;28;20985;-69
2022/09/27 07:14:10;;;;;;;1.63;0.90;;;11.60;97.20;;;;;;1741267;28;20722;-69
2022/09/27 07:15:01;;;;;;;1.08;0.93;;;11.60;97.20;;;;;;1741741;28;20445;-68
2022/09/27 07:15:53;;;;;;;1.33;1.10;;;11.60;97.20;;;;;;1741646;28;20215;-69
2022/09/27 07:16:45;;;;;;;1.00;0.90;;;11.60;97.20;;;;;;1741632;28;20442;-69
2022/09/27 07:17:36;;;;;;;1.25;0.70;;;11.60;97.20;;;;;;1741787;28;20207;-69
2022/09/27 07:18:28;;;;;;;0.95;0.77;;;11.70;97.20;;;;;;1741712;28;20207;-69
2022/09/27 07:19:20;;;;;;;0.90;0.77;;;11.70;97.20;;;;;;1741685;28;20199;-69
2022/09/27 07:20:12;;;;;;;1.20;0.70;;;11.70;97.20;;;;;;1741447;28;20658;-69
2022/09/27 07:21:04;;;;;;;0.80;0.60;;;11.70;97.20;;;;;;1741411;28;20237;-70
2022/09/27 07:21:55;;;;;;;2.08;0.70;;;11.70;97.20;;;;;;1741459;28;20207;-69
2022/09/27 07:22:46;;;;;;;1.17;0.50;;;11.80;97.20;;;;;;1741607;28;20196;-69
2022/09/27 07:23:37;;;;;;;0.70;0.60;;;11.80;97.20;;;;;;1741582;28;20578;-69
2022/09/27 07:24:29;;;;;;;0.70;0.60;;;11.80;97.20;;;;;;1741355;28;20218;-69
2022/09/27 07:25:20;;;;;;;0.80;0.60;;;11.80;97.20;;;;;;1741685;28;20207;-69
2022/09/27 07:26:12;;;;;;;0.77;0.50;;;11.80;97.20;;;;;;1741421;28;20677;-68
2022/09/27 07:27:03;;;;;;;0.80;0.50;;;11.80;97.20;;;;;;1741562;28;20210;-69
2022/09/27 07:27:54;;;;;;;1.60;0.60;;;11.90;97.20;;;;;;1741689;28;20206;-69
2022/09/27 07:28:45;;;;;;;0.90;0.60;;;11.90;97.20;;;;;;1741673;28;20195;-69
2022/09/27 07:29:37;;;;;;;0.97;0.70;;;11.90;97.20;;;;;;1741672;28;20203;-69
2022/09/27 07:30:29;;;;;;;0.90;0.63;;;11.80;97.20;;;;;;1741339;28;20214;-69
2022/09/27 07:31:20;;;;;;;0.95;0.70;;;11.80;97.20;;;;;;1741528;28;20237;-68
2022/09/27 07:32:11;;;;;;;3.58;2.83;;;11.80;97.20;;;;;;1738131;28;20709;-69
2022/09/27 07:33:05;;;;;;;1.67;1.53;;;11.80;97.20;;;;;;1740541;28;20566;-69
2022/09/27 07:33:55;;;;;;;2.30;2.00;;;11.80;97.20;;;;;;1734179;28;20454;-69
2022/09/27 07:34:47;;;;;;;3.17;2.87;;;11.90;97.20;;;;;;1734719;28;20211;-69
2022/09/27 07:35:41;;;;;;;3.25;2.00;;;11.90;97.20;;;;;;1734611;28;20446;-69
2022/09/27 07:36:33;;;;;;;3.30;2.20;;;11.90;97.20;;;;;;1739129;28;20191;-69
2022/09/27 07:37:24;;;;;;;2.28;1.80;;;11.90;97.20;;;;;;1741178;28;20207;-69
2022/09/27 07:38:16;;;;;;;2.50;2.13;;;11.90;97.20;;;;;;1741426;28;20685;-70
2022/09/27 07:39:08;;;;;;;2.28;1.83;;;11.90;97.20;;;;;;1741469;28;20483;-69
2022/09/27 07:40:00;;;;;;;2.20;1.45;;;11.90;97.20;;;;;;1741550;28;20199;-69
2022/09/27 07:40:51;;;;;;;1.52;0.80;;;12.00;97.20;;;;;;1741594;28;20200;-69
2022/09/27 07:41:44;;;;;;;1.13;1.00;;;12.00;97.20;;;;;;1741080;28;20227;-69
2022/09/27 07:42:37;;;;;;;1.42;1.33;;;12.00;97.20;;;;;;1741640;28;21098;-70
2022/09/27 07:43:29;;;;;;;0.90;0.80;;;12.00;97.20;;;;;;1741390;28;20226;-69
2022/09/27 07:44:20;;;;;;;1.95;1.17;;;11.90;97.20;;;;;;1741248;28;20219;-69
2022/09/27 07:45:12;;;;;;;1.87;0.90;;;11.90;97.20;;;;;;1741249;28;20205;-69
2022/09/27 07:46:03;;;;;;;1.40;0.98;;;11.90;97.20;;;;;;1741404;28;20596;-70
2022/09/27 07:46:55;;;;;;;3.47;1.55;;;11.90;97.20;;;;;;1741675;28;20203;-70
2022/09/27 07:47:47;;;;;;;1.15;0.90;;;11.90;97.20;;;;;;1735269;28;20665;-70
2022/09/27 07:48:40;;;;;;;1.25;0.70;;;11.80;97.20;;;;;;1740481;28;20234;-70
2022/09/27 07:49:31;;;;;;;2.10;0.70;;;11.80;97.20;;;;;;1741567;28;20207;-70
2022/09/27 07:50:22;;;;;;;1.00;0.85;;;11.80;97.20;;;;;;1741608;28;20206;-69
2022/09/27 07:51:15;;;;;;;0.90;0.70;;;11.80;97.20;;;;;;1741464;28;20199;-70
2022/09/27 07:52:07;;;;;;;2.30;1.00;;;11.90;97.20;;;;;;1740897;28;20230;-70
2022/09/27 07:52:58;;;;;;;4.40;1.20;;;11.90;97.20;;;;;;1741455;28;20210;-70
2022/09/27 07:53:49;;;;;;;1.10;0.93;;;12.00;97.20;;;;;;1740592;28;20191;-69
2022/09/27 07:54:40;;;;;;;1.20;0.70;;;12.00;97.20;;;;;;1740766;28;20542;-70
2022/09/27 07:55:32;;;;;;;1.50;1.20;;;12.00;97.20;;;;;;1741264;28;20218;-69
2022/09/27 07:56:23;;;;;;;1.75;1.20;;;12.00;97.20;;;;;;1741314;28;20464;-70
2022/09/27 07:57:16;;;;;;;1.07;0.87;;;12.10;97.20;;;;;;1741543;28;20233;-70
2022/09/27 07:58:09;;;;;;;0.90;0.80;;;12.10;97.20;;;;;;1741430;28;20446;-69
2022/09/27 07:59:00;;;;;;;1.33;1.10;;;12.20;97.20;;;;;;1741546;28;20234;-70
2022/09/27 07:59:51;;;;;;;1.30;0.93;;;12.20;97.20;;;;;;1740723;28;20203;-69
2022/09/27 08:00:43;;;;;;;1.60;1.50;;;12.20;97.20;;;;;;1741376;28;20203;-69
2022/09/27 08:01:34;;;;;;;1.10;0.85;;;12.20;97.20;;;;;;1737923;28;20450;-69
2022/09/27 08:02:26;;;;;;;1.67;0.90;;;12.20;97.20;;;;;;1740854;28;20253;-69
2022/09/27 08:03:17;;;;;;;2.42;0.75;;;12.20;97.20;;;;;;1741016;28;20873;-70
2022/09/27 08:04:09;;;;;;;1.00;0.70;;;12.20;97.20;;;;;;1740420;28;20214;-72
2022/09/27 08:05:00;;;;;;;2.03;0.90;;;12.20;97.20;;;;;;1740730;28;20195;-71
2022/09/27 08:05:52;;;;;;;0.93;0.60;;;12.20;97.20;;;;;;1740742;28;20199;-71
2022/09/27 08:06:44;;;;;;;1.60;0.85;;;12.20;97.20;;;;;;1741145;28;20453;-71
2022/09/27 08:07:37;;;;;;;1.27;0.60;;;12.20;97.20;;;;;;1742142;28;20207;-70
2022/09/27 08:08:28;;;;;;;2.95;0.80;;;12.10;97.20;;;;;;1739047;28;20583;-70
2022/09/27 08:09:20;;;;;;;0.80;0.70;;;12.10;97.20;;;;;;1741081;28;20294;-70
2022/09/27 08:10:11;;;;;;;0.80;0.60;;;12.20;97.20;;;;;;1740961;28;20203;-70
2022/09/27 08:11:13;;;;;;;0.83;0.80;;;12.20;97.20;;;;;;1740794;28;20335;-70
2022/09/27 08:12:04;;;;;;;2.00;0.80;;;12.20;97.20;;;;;;1740365;28;20601;-71
2022/09/27 08:12:56;;;;;;;0.87;0.57;;;12.20;97.20;;;;;;1740766;28;20204;-70
2022/09/27 08:13:51;;;;;;;1.50;0.70;;;12.30;97.20;;;;;;1740482;28;20920;-71
2022/09/27 08:14:42;;;;;;;1.20;0.70;;;12.30;97.20;;;;;;1740915;28;20234;-71
2022/09/27 08:15:37;;;;;;;1.20;0.82;;;12.30;97.20;;;;;;1741004;28;20206;-71
2022/09/27 08:16:28;;;;;;;1.75;0.70;;;12.30;97.20;;;;;;1741023;28;20203;-71
2022/09/27 08:17:20;;;;;;;1.00;0.80;;;12.40;97.20;;;;;;1740985;28;20195;-71
2022/09/27 08:18:11;;;;;;;0.70;0.60;;;12.40;97.20;;;;;;1738320;28;20351;-71
2022/09/27 08:19:03;;;;;;;0.80;0.60;;;12.50;97.20;;;;;;1735460;28;20218;-71
2022/09/27 08:19:55;;;;;;;0.75;0.50;;;12.50;97.20;;;;;;1735377;28;20442;-71
2022/09/27 08:20:47;;;;;;;1.55;0.60;;;12.50;97.20;;;;;;1740739;28;20570;-71
2022/09/27 08:21:37;;;;;;;1.20;0.60;;;12.60;97.20;;;;;;1740987;28;20207;-70
2022/09/27 08:22:31;;;;;;;0.80;0.70;;;12.60;97.20;;;;;;1740481;28;20221;-70
2022/09/27 08:23:22;;;;;;;1.00;0.60;;;12.70;97.20;;;;;;1740456;28;20199;-70
2022/09/27 08:24:16;;;;;;;2.23;0.70;;;12.70;97.20;;;;;;1740289;28;20207;-70
2022/09/27 08:25:08;;;;;;;0.80;0.50;;;12.70;97.20;;;;;;1740868;28;20864;-70
2022/09/27 08:26:00;;;;;;;0.80;0.52;;;12.70;97.20;;;;;;1740699;28;20207;-70
2022/09/27 08:26:51;;;;;;;0.80;0.57;;;12.70;97.20;;;;;;1740722;28;20202;-70
2022/09/27 08:27:43;;;;;;;0.70;0.50;;;12.70;97.20;;;;;;1741027;28;20214;-70
2022/09/27 08:28:34;;;;;;;1.30;0.80;;;12.80;97.20;;;;;;1737679;28;20261;-70
2022/09/27 08:29:25;;;;;;;1.73;0.60;;;12.80;97.20;;;;;;1733782;28;20204;-70
2022/09/27 08:30:17;;;;;;;0.70;0.60;;;12.80;97.20;;;;;;1740409;28;20211;-70
2022/09/27 08:31:09;;;;;;;1.10;0.50;;;12.80;97.20;;;;;;1740957;28;20195;-70
2022/09/27 08:32:00;;;;;;;0.80;0.50;;;12.80;97.20;;;;;;1740186;28;20199;-71
2022/09/27 08:32:56;;;;;;;1.55;0.50;;;12.80;97.20;;;;;;1740885;28;20191;-70
2022/09/27 08:33:49;;;;;;;1.73;0.60;;;12.80;97.20;;;;;;1740762;28;20195;-70
2022/09/27 08:34:41;;;;;;;1.05;0.70;;;12.90;97.20;;;;;;1740589;28;20219;-70
2022/09/27 08:35:32;;;;;;;1.23;0.50;;;12.80;97.20;;;;;;1740639;28;20217;-70
2022/09/27 08:36:24;;;;;;;0.85;0.50;;;12.80;97.20;;;;;;1740585;28;20206;-70
2022/09/27 08:37:15;;;;;;;1.20;0.57;;;12.80;97.20;;;;;;1740749;28;20214;-70
2022/09/27 08:38:10;;;;;;;0.83;0.53;;;12.80;97.20;;;;;;1738727;28;20241;-70
2022/09/27 08:39:01;;;;;;;0.80;0.60;;;12.70;97.20;;;;;;1740295;28;20654;-72
2022/09/27 08:39:53;;;;;;;1.10;0.70;;;12.70;97.20;;;;;;1740923;28;20667;-71
2022/09/27 08:40:52;;;;;;;1.30;0.50;;;12.70;97.20;;;;;;1740753;28;20813;-71
2022/09/27 08:41:49;;;;;;;0.70;0.50;;;12.70;97.20;;;;;;1740483;28;20206;-71
2022/09/27 08:42:49;;;;;;;0.98;0.70;;;12.60;97.20;;;;;;1740929;28;20690;-71
2022/09/27 08:43:49;;;;;;;0.90;0.50;;;12.60;97.20;;;;;;1740282;28;20193;-71
2022/09/27 08:44:47;;;;;;;1.23;0.70;;;12.60;97.20;;;;;;1740808;28;20569;-71
2022/09/27 08:45:46;;;;;;;0.85;0.50;;;12.50;97.20;;;;;;1740847;28;20187;-70
2022/09/27 08:46:47;;;;;;;0.75;0.50;;;12.50;97.20;;;;;;1740595;28;20329;-71
2022/09/27 08:47:43;;;;;;;1.90;0.90;;;12.50;97.20;;;;;;1740436;28;20768;-71
2022/09/27 08:48:37;;;;;;;0.80;0.50;;;12.50;97.20;;;;;;1738939;28;20279;-72
2022/09/27 08:49:35;;;;;;;1.70;0.60;;;12.50;97.20;;;;;;1740219;28;20227;-71
2022/09/27 08:50:28;;;;;;;0.70;0.50;;;12.40;97.20;;;;;;1740641;28;20207;-71
2022/09/27 08:51:25;;;;;;;0.70;0.50;;;12.40;97.20;;;;;;1740855;28;20693;-71
2022/09/27 08:52:20;;;;;;;1.27;0.70;;;12.30;97.20;;;;;;1740665;28;20848;-71
2022/09/27 08:53:21;;;;;;;1.00;0.57;;;12.30;97.20;;;;;;1740443;28;20206;-71
2022/09/27 08:54:17;;;;;;;1.25;0.60;;;12.30;97.20;;;;;;1740122;28;20666;-71
2022/09/27 08:55:21;;;;;;;1.17;0.60;;;12.30;97.20;;;;;;1740673;28;20211;-71
2022/09/27 08:56:14;;;;;;;1.65;0.75;;;12.30;97.20;;;;;;1740573;28;20650;-70
2022/09/27 08:57:10;;;;;;;1.50;0.47;;;12.30;97.20;;;;;;1740334;28;20211;-70
2022/09/27 08:58:04;;;;;;;0.70;0.50;;;12.30;97.20;;;;;;1740379;28;20203;-71
2022/09/27 08:59:01;;;;;;;0.70;0.50;;;12.30;97.20;;;;;;1738965;28;20195;-70
2022/09/27 09:00:01;;;;;;;1.02;0.60;;;12.20;97.20;;;;;;1740355;28;20207;-70
2022/09/27 09:00:54;;;;;;;0.70;0.47;;;12.30;97.20;;;;;;1740820;28;20198;-71
2022/09/27 09:01:46;;;;;;;0.90;0.50;;;12.30;97.20;;;;;;1740304;28;20221;-71
2022/09/27 09:02:40;;;;;;;1.00;0.50;;;12.30;97.20;;;;;;1740722;28;20214;-71
2022/09/27 09:03:35;;;;;;;1.00;0.45;;;12.40;97.20;;;;;;1740674;28;20203;-71
2022/09/27 09:04:34;;;;;;;0.70;0.45;;;12.50;97.20;;;;;;1739742;28;20777;-71
2022/09/27 09:05:30;;;;;;;0.80;0.47;;;12.60;97.20;;;;;;1740579;28;20203;-71
2022/09/27 09:06:25;;;;;;;0.70;0.45;;;12.70;97.20;;;;;;1740751;28;20203;-72
2022/09/27 09:07:41;;;;;;;1.17;0.50;;;12.80;97.20;;;;;;1740691;28;20265;-71
2022/09/27 09:08:42;;;;;;;0.90;0.52;;;12.90;97.20;;;;;;1736505;28;20200;-70
2022/09/27 09:09:44;;;;;;;0.77;0.50;;;13.00;97.20;;;;;;1740823;28;20187;-70
2022/09/27 09:13:36;;;;;;;0.90;0.50;;;13.30;97.20;;;;;;1734584;28;20260;-70
2022/09/27 09:14:46;;;;;;;0.70;0.50;;;13.30;97.20;;;;;;1733619;28;20191;-71
2022/09/27 09:15:55;;;;;;;0.80;0.50;;;13.40;97.20;;;;;;1740192;28;20207;-71
2022/09/27 09:16:55;;;;;;;1.35;0.50;;;13.50;97.20;;;;;;1740777;28;20191;-71
2022/09/27 09:18:08;;;;;;;0.90;0.60;;;13.60;97.20;;;;;;1741202;28;20187;-71
2022/09/27 09:19:14;;;;;;;1.25;0.45;;;13.70;97.20;;;;;;1735829;28;20192;-71
2022/09/27 09:20:26;;;;;;;0.80;0.50;;;13.80;97.20;;;;;;1734381;28;20195;-71
2022/09/27 09:21:26;;;;;;;1.05;0.50;;;13.90;97.20;;;;;;1733178;28;20212;-71
2022/09/27 09:22:38;;;;;;;1.52;0.50;;;14.00;97.20;;;;;;1734708;28;20235;-70
2022/09/27 09:23:53;;;;;;;0.80;0.50;;;14.10;97.20;;;;;;1735778;28;20215;-70
2022/09/27 09:25:00;;;;;;;0.70;0.50;;;14.20;97.20;;;;;;1735720;28;20176;-70
2022/09/27 09:26:00;;;;;;;1.02;0.50;;;14.30;97.20;;;;;;1735582;28;20200;-70
2022/09/27 09:26:56;;;;;;;0.80;0.50;;;14.30;97.20;;;;;;1735567;28;20333;-70
2022/09/27 09:27:59;;;;;;;0.95;0.50;;;14.40;97.20;;;;;;1741981;28;20649;-71
2022/09/27 09:29:08;;;;;;;0.80;0.57;;;14.50;97.20;;;;;;1740719;28;20202;-70
2022/09/27 09:30:09;;;;;;;0.80;0.50;;;14.60;97.20;;;;;;1742660;28;20249;-71
2022/09/27 09:31:08;;;;;;;1.63;0.60;;;14.70;97.20;;;;;;1742507;28;20661;-71
2022/09/27 09:32:10;;;;;;;0.90;0.60;;;14.80;97.20;;;;;;1742624;28;20183;-70
2022/09/27 09:33:14;;;;;;;1.00;0.57;;;15.00;97.20;;;;;;1742440;28;20187;-70
2022/09/27 09:34:14;;;;;;;1.08;0.60;;;15.10;97.20;;;;;;1741863;28;20210;-70
2022/09/27 09:35:10;;;;;;;1.25;0.60;;;15.20;97.20;;;;;;1742419;28;20241;-70
2022/09/27 09:36:09;;;;;;;1.00;0.68;;;15.30;97.20;;;;;;1741973;28;20199;-69
2022/09/27 09:37:04;;;;;;;0.80;0.50;;;15.40;97.20;;;;;;1741878;28;20232;-70
2022/09/27 09:37:58;;;;;;;0.73;0.60;;;15.40;97.20;;;;;;1737203;28;20231;-69
2022/09/27 09:38:55;;;;;;;1.05;0.50;;;15.50;97.20;;;;;;1740511;28;20199;-69
2022/09/27 09:39:54;;;;;;;1.08;0.60;;;15.60;97.20;;;;;;1745790;28;20194;-69
2022/09/27 09:40:51;;;;;;;1.10;0.60;;;15.70;97.20;;;;;;1749405;28;20210;-69
2022/09/27 09:41:51;;;;;;;1.70;0.60;;;15.80;97.20;;;;;;1746023;28;20244;-70
2022/09/27 09:42:49;;;;;;;1.02;0.60;;;15.90;97.20;;;;;;1749074;28;20217;-69